Time;durP1;ratioP1;P1;durP2;ratioP2;P2;SDS_P1;SDS_P2;PMS_P1;PMS_P2;Temp;Humidity;BMP_temperature;BMP_pressure;BME280_temperature;BME280_humidity;BME280_pressure;Samples;Min_cycle;Max_cycle;Signal;HPM_P1;HPM_P2
2022/05/29 00:00:00;;;;;;;9.05;1.30;;;;;;;23.13;27.67;100372.28;2080189;28;20046;-72
2022/05/29 00:01:24;;;;;;;5.28;1.30;;;;;;;23.07;27.93;100368.03;2082152;28;20040;-71
2022/05/29 00:02:48;;;;;;;9.85;1.67;;;;;;;22.96;28.18;100371.19;2085078;28;20049;-72
2022/05/29 00:04:09;;;;;;;2.88;0.80;;;;;;;22.99;27.55;100376.41;2077267;28;20434;-71
2022/05/29 00:05:31;;;;;;;9.70;1.70;;;;;;;23.14;27.23;100368.66;2077786;28;20037;-71
2022/05/29 00:06:57;;;;;;;9.15;1.83;;;;;;;23.27;27.04;100377.97;2077160;28;20052;-71
2022/05/29 00:08:27;;;;;;;6.45;1.10;;;;;;;23.36;26.37;100373.06;2075266;28;20051;-72
2022/05/29 00:09:49;;;;;;;5.75;1.25;;;;;;;23.48;26.21;100366.28;2083929;28;20652;-72
2022/05/29 00:11:13;;;;;;;4.40;1.75;;;;;;;23.58;25.71;100372.13;2080358;28;20048;-71
2022/05/29 00:12:36;;;;;;;6.07;1.52;;;;;;;23.74;24.95;100371.41;2073929;28;20049;-72
2022/05/29 00:14:00;;;;;;;4.68;0.85;;;;;;;23.90;24.71;100370.69;2089626;28;20537;-71
2022/05/29 00:15:23;;;;;;;5.38;1.20;;;;;;;24.00;24.37;100367.53;2074523;28;20070;-71
2022/05/29 00:16:46;;;;;;;10.23;1.70;;;;;;;24.09;24.18;100372.47;2075430;28;20484;-72
2022/05/29 00:18:10;;;;;;;6.20;1.52;;;;;;;24.19;23.96;100365.75;2081869;28;20041;-72
2022/05/29 00:19:31;;;;;;;6.85;1.73;;;;;;;24.28;23.81;100368.97;2080474;28;20110;-71
2022/05/29 00:20:56;;;;;;;7.15;1.20;;;;;;;24.28;23.75;100364.47;2077420;28;20378;-71
2022/05/29 00:22:20;;;;;;;6.90;1.27;;;;;;;24.29;23.77;100359.91;2076221;28;20050;-70
2022/05/29 00:23:44;;;;;;;5.72;0.93;;;;;;;24.31;23.71;100367.00;2078047;28;20057;-71
2022/05/29 00:25:11;;;;;;;4.53;1.08;;;;;;;24.32;23.65;100363.34;2078961;28;20049;-71
2022/05/29 00:26:34;;;;;;;6.25;1.08;;;;;;;24.29;23.55;100358.09;2086750;28;20073;-72
2022/05/29 00:27:56;;;;;;;9.95;1.98;;;;;;;24.25;23.79;100359.19;2079692;28;20051;-71
2022/05/29 00:29:18;;;;;;;3.65;1.15;;;;;;;24.19;23.87;100363.06;2080009;28;20080;-71
2022/05/29 00:30:41;;;;;;;10.32;1.27;;;;;;;24.17;23.79;100347.84;2077268;28;20044;-70
2022/05/29 00:32:07;;;;;;;4.70;1.05;;;;;;;24.17;23.68;100351.41;2083986;28;20060;-70
2022/05/29 00:33:30;;;;;;;8.63;1.85;;;;;;;24.18;23.72;100350.47;2078158;28;20436;-71
2022/05/29 00:34:52;;;;;;;6.72;1.30;;;;;;;24.17;23.65;100354.13;2074288;28;20338;-71
2022/05/29 00:36:17;;;;;;;8.52;1.45;;;;;;;24.15;23.65;100347.94;2074784;28;20042;-71
2022/05/29 00:37:42;;;;;;;8.88;1.52;;;;;;;24.11;23.90;100348.13;2078732;28;20501;-71
2022/05/29 00:39:04;;;;;;;9.50;1.40;;;;;;;24.06;23.97;100345.66;2083079;28;20098;-71
2022/05/29 00:40:33;;;;;;;7.10;1.65;;;;;;;24.01;24.01;100339.59;2080316;28;20058;-71
2022/05/29 00:41:57;;;;;;;7.05;1.10;;;;;;;23.95;23.91;100337.19;2077132;28;20045;-71
2022/05/29 00:43:18;;;;;;;4.65;1.08;;;;;;;24.01;23.75;100333.34;2080102;28;20719;-71
2022/05/29 00:44:41;;;;;;;6.32;1.00;;;;;;;24.14;23.02;100337.22;2077167;28;20045;-71
2022/05/29 00:46:04;;;;;;;8.55;1.08;;;;;;;24.36;22.66;100331.69;2085996;28;20458;-71
2022/05/29 00:47:29;;;;;;;4.93;2.28;;;;;;;24.61;22.48;100329.56;2085717;28;20040;-71
2022/05/29 00:48:50;;;;;;;7.40;0.75;;;;;;;24.81;22.26;100324.03;2077270;28;20053;-71
2022/05/29 00:50:13;;;;;;;14.43;3.20;;;;;;;24.97;21.95;100329.56;2085724;28;20045;-71
2022/05/29 00:51:37;;;;;;;6.72;0.93;;;;;;;25.10;21.81;100325.31;2084905;28;20057;-71
2022/05/29 00:53:00;;;;;;;8.30;1.13;;;;;;;25.24;21.59;100328.16;2085064;28;20103;-71
2022/05/29 00:54:24;;;;;;;6.00;1.40;;;;;;;25.36;21.77;100327.53;2083654;28;21320;-71
2022/05/29 00:55:59;;;;;;;10.75;1.77;;;;;;;25.47;21.37;100324.25;2084953;28;20094;-71
2022/05/29 00:57:27;;;;;;;12.65;1.48;;;;;;;25.57;21.37;100327.34;2079373;28;20045;-71
2022/05/29 00:58:49;;;;;;;7.63;1.10;;;;;;;25.64;21.01;100323.41;2080641;28;20409;-71
2022/05/29 01:00:16;;;;;;;9.52;1.40;;;;;;;25.71;20.84;100317.59;2085832;28;20048;-71
2022/05/29 01:01:38;;;;;;;8.23;1.20;;;;;;;25.78;20.62;100321.72;2085765;28;20045;-71
2022/05/29 01:03:05;;;;;;;5.75;1.00;;;;;;;25.85;20.79;100307.84;2086824;28;20045;-71
2022/05/29 01:04:27;;;;;;;5.93;1.42;;;;;;;25.90;20.59;100322.88;2079293;28;20045;-72
2022/05/29 01:05:49;;;;;;;3.63;1.08;;;;;;;25.96;20.49;100314.41;2084512;28;20080;-71
2022/05/29 01:07:15;;;;;;;8.20;1.38;;;;;;;26.00;20.58;100309.69;2076550;28;20141;-71
2022/05/29 01:08:39;;;;;;;7.68;1.27;;;;;;;26.04;20.42;100311.28;2085267;28;21617;-71
2022/05/29 01:10:03;;;;;;;10.50;1.60;;;;;;;26.08;20.68;100316.44;2085462;28;20045;-71
2022/05/29 01:11:35;;;;;;;4.55;1.35;;;;;;;26.12;20.42;100320.69;2076871;28;20116;-71
2022/05/29 01:13:07;;;;;;;10.43;1.60;;;;;;;26.18;20.73;100309.56;2084595;28;20249;-71
2022/05/29 01:14:36;;;;;;;6.90;2.05;;;;;;;26.23;20.49;100314.72;2086777;28;20048;-71
2022/05/29 01:16:08;;;;;;;8.93;2.22;;;;;;;26.27;20.66;100318.13;2086182;28;20533;-72
2022/05/29 01:17:34;;;;;;;;;;;;;;;26.23;20.51;100313.84;2086363;28;20053;-71
2022/05/29 01:19:12;;;;;;;7.68;1.70;;;;;;;26.25;20.54;100317.38;2076203;28;19925;-71
2022/05/29 01:20:57;;;;;;;15.88;1.83;;;;;;;26.31;20.45;100308.91;2079432;28;20171;-71
2022/05/29 01:22:37;;;;;;;9.70;1.48;;;;;;;26.36;20.58;100312.22;2079940;28;20053;-71
2022/05/29 01:24:21;;;;;;;9.43;1.77;;;;;;;26.41;20.56;100312.81;2071643;28;20418;-71
2022/05/29 01:26:22;;;;;;;6.28;1.33;;;;;;;26.49;20.21;100310.56;2080533;28;20053;-71
2022/05/29 01:28:04;;;;;;;9.27;1.55;;;;;;;26.54;20.45;100311.16;2067282;28;20058;-71
2022/05/29 01:29:34;;;;;;;6.50;1.73;;;;;;;26.58;20.15;100304.63;2086726;28;20065;-71
2022/05/29 01:31:04;;;;;;;5.50;1.42;;;;;;;26.63;19.91;100307.94;2085528;28;20080;-71
2022/05/29 01:32:36;;;;;;;12.73;1.92;;;;;;;26.69;19.93;100295.88;2078298;28;20053;-71
2022/05/29 01:34:01;;;;;;;9.43;1.73;;;;;;;26.73;19.88;100305.53;2077469;28;20449;-71
2022/05/29 01:35:30;;;;;;;10.70;1.88;;;;;;;26.76;19.90;100308.97;2076738;28;20053;-71
2022/05/29 01:37:03;;;;;;;7.80;1.70;;;;;;;26.76;19.99;100302.66;2075214;28;20080;-71
2022/05/29 01:38:31;;;;;;;4.82;1.20;;;;;;;26.77;19.76;100310.72;2072541;28;20490;-71
2022/05/29 01:40:04;;;;;;;11.90;2.22;;;;;;;26.79;19.96;100314.19;2070006;28;20081;-71
2022/05/29 01:41:36;;;;;;;7.57;2.05;;;;;;;26.80;19.78;100310.50;2076829;28;20098;-71
2022/05/29 01:43:09;;;;;;;7.13;1.33;;;;;;;26.82;19.91;100313.13;2081923;28;20118;-71
2022/05/29 01:44:38;;;;;;;6.15;1.30;;;;;;;26.81;19.87;100296.00;2078741;28;20044;-71
2022/05/29 01:46:05;;;;;;;10.52;1.60;;;;;;;26.82;19.75;100311.31;2080231;28;20127;-72
2022/05/29 01:47:38;;;;;;;7.07;1.60;;;;;;;26.84;19.77;100319.34;2077685;28;20041;-71
2022/05/29 01:49:07;;;;;;;10.25;1.63;;;;;;;26.87;19.54;100300.19;2085743;28;20084;-71
2022/05/29 01:50:38;;;;;;;10.15;1.35;;;;;;;26.93;19.65;100303.44;2085422;28;20040;-71
2022/05/29 01:52:04;;;;;;;6.60;1.48;;;;;;;26.96;19.47;100307.81;2076472;28;20140;-71
2022/05/29 01:53:33;;;;;;;14.18;1.33;;;;;;;26.99;19.50;100313.03;2075478;28;20486;-71
2022/05/29 01:55:01;;;;;;;6.72;1.48;;;;;;;27.03;19.47;100301.06;2075254;28;20144;-71
2022/05/29 01:56:29;;;;;;;9.30;1.92;;;;;;;27.07;19.35;100308.03;2077397;28;20091;-71
2022/05/29 01:57:57;;;;;;;6.82;1.20;;;;;;;27.13;19.29;100312.22;2080058;28;20049;-71
2022/05/29 01:59:26;;;;;;;7.65;1.88;;;;;;;27.16;19.37;100304.78;2076287;28;20056;-71
2022/05/29 02:00:50;;;;;;;18.08;1.80;;;;;;;27.15;19.16;100322.00;2084007;28;20048;-71
2022/05/29 02:02:17;;;;;;;5.30;1.50;;;;;;;27.17;19.27;100313.81;2079701;28;20053;-71
2022/05/29 02:03:44;;;;;;;6.60;1.95;;;;;;;27.16;19.33;100321.06;2094192;28;20048;-71
2022/05/29 02:05:12;;;;;;;14.13;1.75;;;;;;;27.22;18.96;100322.53;2085420;28;20140;-71
2022/05/29 02:08:29;;;;;;;5.80;1.25;;;;;;;27.32;19.07;100321.84;2054612;28;20398;-70
2022/05/29 02:09:57;;;;;;;10.10;1.60;;;;;;;27.32;19.13;100319.16;2064443;28;20099;-71
2022/05/29 02:11:23;;;;;;;8.95;1.73;;;;;;;27.31;19.06;100317.41;2083055;28;20045;-70
2022/05/29 02:12:53;;;;;;;13.73;2.53;;;;;;;27.34;18.99;100322.66;2086562;28;20156;-70
2022/05/29 02:14:21;;;;;;;6.47;1.50;;;;;;;27.38;19.05;100317.91;2079409;28;20049;-71
2022/05/29 02:15:52;;;;;;;8.30;1.40;;;;;;;27.42;19.20;100316.75;2078262;28;20049;-71
2022/05/29 02:17:17;;;;;;;9.57;1.60;;;;;;;27.43;19.14;100315.81;2086128;28;20044;-71
2022/05/29 02:18:47;;;;;;;7.07;1.38;;;;;;;27.45;19.19;100321.97;2080687;28;20045;-70
2022/05/29 02:20:12;;;;;;;9.65;1.38;;;;;;;27.48;18.96;100313.66;2085235;28;20123;-71
2022/05/29 02:21:42;;;;;;;15.75;2.13;;;;;;;27.52;18.70;100314.38;2079412;28;20049;-71
2022/05/29 02:23:09;;;;;;;12.35;2.38;;;;;;;27.60;18.67;100312.94;2077476;28;20508;-71
2022/05/29 02:24:35;;;;;;;20.27;3.17;;;;;;;27.66;18.58;100320.69;2077493;28;20140;-71
2022/05/29 02:25:59;;;;;;;13.82;2.40;;;;;;;27.68;18.67;100324.19;2082493;28;20045;-71
2022/05/29 02:27:26;;;;;;;13.02;1.90;;;;;;;27.71;18.78;100320.41;2084085;28;20045;-71
2022/05/29 02:28:54;;;;;;;7.78;2.20;;;;;;;27.72;18.69;100327.59;2083723;28;20037;-71
2022/05/29 02:30:16;;;;;;;7.85;1.92;;;;;;;27.74;18.37;100309.38;2077696;28;20050;-71
2022/05/29 02:31:54;;;;;;;17.15;2.70;;;;;;;27.79;18.54;100319.94;2083997;28;20045;-71
2022/05/29 02:33:23;;;;;;;8.88;2.10;;;;;;;27.80;18.34;100329.81;2085667;28;20489;-71
2022/05/29 02:34:54;;;;;;;13.30;2.08;;;;;;;27.81;18.47;100326.13;2084881;28;20040;-70
2022/05/29 02:36:23;;;;;;;10.77;2.42;;;;;;;27.80;18.30;100325.25;2071448;28;20050;-71
2022/05/29 02:37:50;;;;;;;9.10;1.85;;;;;;;27.82;18.21;100336.03;2083771;28;20052;-71
2022/05/29 02:39:27;;;;;;;10.43;2.28;;;;;;;27.82;18.56;100325.19;2079500;28;20049;-71
2022/05/29 02:40:58;;;;;;;10.38;2.28;;;;;;;27.79;18.75;100330.78;2084180;28;20125;-71
2022/05/29 02:42:29;;;;;;;8.75;1.98;;;;;;;27.72;18.87;100338.44;2086795;28;20102;-71
2022/05/29 02:43:59;;;;;;;9.75;3.33;;;;;;;27.70;18.50;100332.22;2076897;28;20041;-71
2022/05/29 02:45:31;;;;;;;6.00;1.23;;;;;;;27.67;18.78;100338.72;2076357;28;20184;-71
2022/05/29 02:47:01;;;;;;;9.30;1.83;;;;;;;27.65;18.58;100335.22;2070134;28;20073;-71
2022/05/29 02:48:33;;;;;;;9.05;2.13;;;;;;;27.63;18.77;100345.31;2089700;28;20140;-71
2022/05/29 02:50:11;;;;;;;9.32;1.98;;;;;;;27.60;18.79;100348.22;2074032;28;20112;-71
2022/05/29 02:51:41;;;;;;;19.15;3.53;;;;;;;27.59;18.59;100351.00;2078920;28;20148;-71
2022/05/29 02:53:12;;;;;;;8.35;2.15;;;;;;;27.56;18.98;100352.09;2085963;28;20408;-71
2022/05/29 02:54:35;;;;;;;9.80;2.05;;;;;;;27.55;19.03;100344.03;2078243;28;20053;-71
2022/05/29 02:55:58;;;;;;;7.82;1.40;;;;;;;27.54;19.01;100342.28;2081229;28;20423;-71
2022/05/29 02:57:21;;;;;;;8.00;1.83;;;;;;;27.54;18.90;100348.59;2079374;28;20252;-71
2022/05/29 02:58:47;;;;;;;6.75;1.83;;;;;;;27.53;19.02;100346.84;2083893;28;20045;-71
2022/05/29 03:00:13;;;;;;;9.73;1.67;;;;;;;27.52;18.97;100341.50;2077537;28;20421;-71
2022/05/29 03:01:44;;;;;;;7.43;1.77;;;;;;;27.56;19.05;100348.50;2082856;28;20032;-71
2022/05/29 03:03:19;;;;;;;7.75;1.75;;;;;;;27.55;19.03;100358.47;2086028;28;20432;-71
2022/05/29 03:04:56;;;;;;;11.48;2.25;;;;;;;27.54;19.17;100343.16;2079027;28;20047;-71
2022/05/29 03:06:31;;;;;;;10.88;2.55;;;;;;;27.54;19.18;100342.28;2083323;28;20053;-71
2022/05/29 03:08:10;;;;;;;9.80;1.60;;;;;;;27.52;19.45;100346.91;2085510;28;20045;-71
2022/05/29 03:09:55;;;;;;;12.02;2.28;;;;;;;27.47;19.49;100354.44;2070766;28;20045;-71
2022/05/29 03:11:28;;;;;;;8.15;1.52;;;;;;;27.45;19.51;100359.94;2087431;28;20128;-71
2022/05/29 03:13:03;;;;;;;10.20;3.17;;;;;;;27.45;19.53;100364.50;2072550;28;20132;-71
2022/05/29 03:14:40;;;;;;;7.53;1.52;;;;;;;27.44;19.56;100357.34;2086352;28;20053;-71
2022/05/29 03:16:11;;;;;;;10.90;1.92;;;;;;;27.43;19.69;100356.47;2081635;28;20048;-71
2022/05/29 03:17:39;;;;;;;7.85;1.50;;;;;;;27.41;19.63;100350.25;2075813;28;20096;-71
2022/05/29 03:19:18;;;;;;;7.95;1.60;;;;;;;27.41;19.75;100355.69;2083144;28;20460;-71
2022/05/29 03:20:45;;;;;;;12.13;2.05;;;;;;;27.43;19.72;100370.03;2086473;28;20385;-71
2022/05/29 03:22:17;;;;;;;11.48;1.60;;;;;;;27.46;19.95;100358.09;2077436;28;20046;-71
2022/05/29 03:23:49;;;;;;;9.23;1.70;;;;;;;27.48;19.87;100364.31;2076681;28;20549;-71
2022/05/29 03:25:19;;;;;;;13.18;1.60;;;;;;;27.49;19.93;100364.25;2085054;28;20044;-71
2022/05/29 03:26:48;;;;;;;8.63;1.55;;;;;;;27.51;19.92;100359.56;2076030;28;20045;-71
2022/05/29 03:28:17;;;;;;;8.15;2.17;;;;;;;27.53;20.07;100354.09;2068955;28;20862;-70
2022/05/29 03:29:45;;;;;;;10.63;1.70;;;;;;;27.54;20.02;100351.28;2075554;28;20053;-71
2022/05/29 03:31:11;;;;;;;9.95;1.85;;;;;;;27.56;19.94;100353.94;2080197;28;20045;-71
2022/05/29 03:32:36;;;;;;;4.78;1.40;;;;;;;27.57;19.90;100358.38;2077261;28;20043;-71
2022/05/29 03:33:59;;;;;;;10.95;1.50;;;;;;;27.59;20.16;100353.72;2082398;28;20140;-71
2022/05/29 03:35:27;;;;;;;10.25;1.58;;;;;;;27.58;20.17;100344.72;2084091;28;20039;-71
2022/05/29 03:36:52;;;;;;;10.30;1.70;;;;;;;27.56;20.12;100343.94;2077218;28;20057;-71
2022/05/29 03:38:13;;;;;;;7.78;1.60;;;;;;;27.56;20.27;100338.53;2082552;28;20057;-71
2022/05/29 03:39:36;;;;;;;12.23;1.65;;;;;;;27.55;20.34;100347.63;2084766;28;20044;-71
2022/05/29 03:40:57;;;;;;;7.35;1.42;;;;;;;27.57;20.38;100340.25;2078352;28;20038;-72
2022/05/29 03:42:20;;;;;;;7.53;1.60;;;;;;;27.59;20.27;100341.03;2075564;28;20397;-71
2022/05/29 03:43:43;;;;;;;8.52;1.80;;;;;;;27.61;20.25;100349.09;2078465;28;20045;-71
2022/05/29 03:45:08;;;;;;;13.35;2.05;;;;;;;27.63;20.35;100337.19;2076263;28;20144;-71
2022/05/29 03:46:30;;;;;;;8.15;1.73;;;;;;;27.64;20.53;100341.63;2073493;28;20092;-71
2022/05/29 03:47:51;;;;;;;8.93;1.60;;;;;;;27.67;20.25;100337.84;2076688;28;20103;-70
2022/05/29 03:49:16;;;;;;;12.57;2.53;;;;;;;27.69;20.16;100325.94;2082577;28;20045;-71
2022/05/29 03:50:39;;;;;;;13.35;3.28;;;;;;;27.76;20.17;100342.72;2068704;28;20045;-71
2022/05/29 03:52:02;;;;;;;8.48;2.00;;;;;;;27.80;20.26;100343.38;2070902;28;20104;-71
2022/05/29 03:53:23;;;;;;;8.30;1.85;;;;;;;27.83;20.35;100348.63;2073016;28;20430;-71
2022/05/29 03:54:46;;;;;;;12.50;1.75;;;;;;;27.82;20.37;100349.59;2076361;28;20133;-71
2022/05/29 03:56:08;;;;;;;7.68;1.75;;;;;;;27.79;20.44;100345.22;2081005;28;20045;-71
2022/05/29 03:57:31;;;;;;;9.55;1.90;;;;;;;27.77;20.60;100342.59;2075770;28;20041;-71
2022/05/29 03:58:53;;;;;;;10.13;1.50;;;;;;;27.79;20.75;100341.63;2080846;28;20045;-71
2022/05/29 04:00:17;;;;;;;9.30;1.70;;;;;;;27.82;20.56;100345.06;2081013;28;20439;-71
2022/05/29 04:01:40;;;;;;;9.38;1.38;;;;;;;27.86;20.68;100340.28;2077882;28;20071;-71
2022/05/29 04:03:03;;;;;;;7.65;1.45;;;;;;;27.92;20.64;100345.31;2079730;28;20045;-71
2022/05/29 04:04:26;;;;;;;13.52;2.10;;;;;;;27.97;20.50;100335.03;2083141;28;20046;-71
2022/05/29 04:05:50;;;;;;;9.30;1.48;;;;;;;28.07;20.48;100344.38;2069763;28;20056;-71
2022/05/29 04:07:12;;;;;;;10.13;1.48;;;;;;;28.17;20.60;100352.81;2078831;28;20120;-72
2022/05/29 04:12:07;;;;;;;13.68;1.48;;;;;;;28.42;20.68;100358.44;2086795;28;20548;-71
2022/05/29 04:13:35;;;;;;;5.65;1.55;;;;;;;28.43;20.54;100352.88;2078993;28;20069;-71
2022/05/29 04:14:58;;;;;;;8.93;1.45;;;;;;;28.45;20.29;100369.97;2078268;28;20046;-71
2022/05/29 04:16:19;;;;;;;6.55;1.60;;;;;;;28.50;20.04;100362.38;2073416;28;20256;-71
2022/05/29 04:17:42;;;;;;;8.80;1.88;;;;;;;28.56;19.87;100361.09;2074966;28;20100;-71
2022/05/29 04:19:03;;;;;;;6.18;1.70;;;;;;;28.60;19.63;100362.69;2075382;28;20050;-71
2022/05/29 04:20:26;;;;;;;7.55;2.28;;;;;;;28.66;19.61;100366.81;2069263;28;20128;-71
2022/05/29 04:21:49;;;;;;;11.60;1.30;;;;;;;28.73;19.13;100365.44;2075518;28;20061;-71
2022/05/29 04:23:12;;;;;;;14.55;2.00;;;;;;;28.80;19.20;100362.25;2080521;28;20045;-71
2022/05/29 04:24:35;;;;;;;8.10;1.50;;;;;;;28.95;19.36;100373.94;2077795;28;20081;-71
2022/05/29 04:25:57;;;;;;;11.40;1.92;;;;;;;29.06;19.51;100355.09;2087509;28;20143;-72
2022/05/29 04:27:20;;;;;;;12.60;2.25;;;;;;;29.12;19.59;100357.38;2077550;28;20055;-71
2022/05/29 04:28:41;;;;;;;10.80;1.70;;;;;;;29.14;19.49;100357.28;2083252;28;20044;-71
2022/05/29 04:30:05;;;;;;;;;;;;;;;29.10;19.63;100355.72;2086048;28;20045;-71
2022/05/29 04:31:28;;;;;;;11.00;1.77;;;;;;;29.09;19.46;100362.13;2085225;28;19925;-71
2022/05/29 04:33:01;;;;;;;9.20;1.20;;;;;;;29.07;19.29;100348.69;2085822;28;20111;-71
2022/05/29 04:34:23;;;;;;;8.50;1.58;;;;;;;29.12;19.14;100356.50;2078649;28;20136;-71
2022/05/29 04:35:50;;;;;;;10.80;1.75;;;;;;;29.31;19.32;100357.88;2082137;28;20440;-71
2022/05/29 04:37:14;;;;;;;8.43;1.75;;;;;;;29.54;19.38;100359.03;2070424;28;20096;-71
2022/05/29 04:38:36;;;;;;;13.20;2.10;;;;;;;29.57;19.03;100360.66;2077219;28;20537;-71
2022/05/29 04:39:58;;;;;;;7.80;1.92;;;;;;;29.53;19.36;100359.16;2075000;28;20038;-71
2022/05/29 04:41:25;;;;;;;10.02;2.00;;;;;;;29.47;19.45;100359.59;2077067;28;20383;-71
2022/05/29 04:42:47;;;;;;;10.93;1.35;;;;;;;29.44;19.50;100365.22;2085912;28;20095;-71
2022/05/29 04:44:09;;;;;;;10.52;1.30;;;;;;;29.50;19.66;100362.06;2077766;28;20447;-71
2022/05/29 04:45:32;;;;;;;13.18;2.08;;;;;;;29.54;19.52;100359.03;2082871;28;20098;-71
2022/05/29 04:46:56;;;;;;;8.65;1.83;;;;;;;29.58;19.28;100366.00;2085661;28;20717;-71
2022/05/29 04:48:19;;;;;;;13.35;1.80;;;;;;;29.51;19.39;100363.81;2085758;28;20084;-71
2022/05/29 04:49:42;;;;;;;12.07;1.88;;;;;;;29.43;19.22;100363.47;2085860;28;20106;-71
2022/05/29 04:51:06;;;;;;;10.32;1.80;;;;;;;29.32;19.70;100364.19;2077489;28;20052;-71
2022/05/29 04:52:30;;;;;;;14.02;2.00;;;;;;;29.25;19.78;100366.47;2077921;28;20045;-71
2022/05/29 04:53:53;;;;;;;7.88;1.45;;;;;;;29.19;19.51;100358.72;2071913;28;20041;-71
2022/05/29 04:55:15;;;;;;;9.35;1.30;;;;;;;29.13;19.47;100369.13;2077041;28;20199;-71
2022/05/29 04:56:38;;;;;;;11.20;2.25;;;;;;;29.10;19.69;100366.59;2077626;28;20695;-71
2022/05/29 04:58:01;;;;;;;15.88;1.65;;;;;;;29.08;19.56;100369.41;2077613;28;20041;-71
2022/05/29 04:59:23;;;;;;;11.80;1.88;;;;;;;29.12;19.33;100370.09;2079997;28;20275;-72
2022/05/29 05:00:46;;;;;;;8.13;2.25;;;;;;;29.12;19.30;100362.81;2077731;28;20145;-71
2022/05/29 05:02:09;;;;;;;7.57;1.80;;;;;;;29.15;19.07;100365.31;2073053;28;20073;-71
2022/05/29 05:03:32;;;;;;;10.65;2.08;;;;;;;29.20;18.92;100363.19;2075595;28;20600;-71
2022/05/29 05:04:55;;;;;;;9.45;2.45;;;;;;;29.25;18.77;100371.91;2080172;28;20635;-71
2022/05/29 05:06:17;;;;;;;4.22;1.00;;;;;;;29.32;18.82;100386.81;2069289;28;20085;-71
2022/05/29 05:07:40;;;;;;;13.02;2.20;;;;;;;29.43;18.54;100383.38;2067021;28;20514;-71
2022/05/29 05:09:03;;;;;;;6.32;1.92;;;;;;;29.50;18.21;100386.56;2066626;28;20149;-71
2022/05/29 05:10:26;;;;;;;10.32;2.35;;;;;;;29.56;18.28;100380.69;2066365;28;20119;-71
2022/05/29 05:11:49;;;;;;;11.32;2.15;;;;;;;29.64;18.43;100391.94;2084256;28;20428;-71
2022/05/29 05:13:11;;;;;;;9.35;2.15;;;;;;;29.78;18.10;100394.56;2077493;28;20041;-71
2022/05/29 05:14:35;;;;;;;12.93;1.58;;;;;;;29.80;17.97;100394.47;2083078;28;20106;-71
2022/05/29 05:16:01;;;;;;;8.75;1.58;;;;;;;29.77;18.28;100402.81;2085623;28;20078;-71
2022/05/29 05:17:24;;;;;;;6.85;1.52;;;;;;;29.72;18.41;100411.31;2085434;28;20040;-71
2022/05/29 05:18:46;;;;;;;10.15;2.35;;;;;;;29.69;18.26;100397.91;2085587;28;20139;-72
2022/05/29 05:20:10;;;;;;;6.88;2.00;;;;;;;29.66;18.31;100404.47;2085736;28;20053;-72
2022/05/29 05:21:32;;;;;;;9.00;1.90;;;;;;;29.64;18.46;100398.25;2085695;28;20040;-71
2022/05/29 05:22:56;;;;;;;12.40;2.90;;;;;;;29.64;18.50;100395.53;2085182;28;20049;-72
2022/05/29 05:24:20;;;;;;;10.10;2.25;;;;;;;29.63;18.43;100392.91;2083721;28;20126;-72
2022/05/29 05:25:42;;;;;;;17.08;3.22;;;;;;;29.61;18.49;100395.72;2081039;28;20049;-73
2022/05/29 05:27:05;;;;;;;8.25;2.03;;;;;;;29.60;18.29;100407.56;2078156;28;20545;-72
2022/05/29 05:28:28;;;;;;;10.18;1.75;;;;;;;29.59;18.29;100405.84;2082354;28;20501;-72
2022/05/29 05:29:51;;;;;;;7.63;1.67;;;;;;;29.58;18.51;100393.22;2085540;28;20053;-72
2022/05/29 05:31:14;;;;;;;7.40;1.92;;;;;;;29.57;18.43;100399.66;2085249;28;20053;-72
2022/05/29 05:32:36;;;;;;;7.97;2.13;;;;;;;29.55;18.56;100403.44;2075649;28;20643;-72
2022/05/29 05:33:57;;;;;;;13.52;2.53;;;;;;;29.56;18.75;100408.78;2085633;28;20048;-72
2022/05/29 05:35:20;;;;;;;10.32;2.03;;;;;;;29.58;18.50;100405.97;2084672;28;20049;-71
2022/05/29 05:36:42;;;;;;;10.63;1.90;;;;;;;29.55;18.26;100406.16;2079668;28;20124;-72
2022/05/29 05:38:07;;;;;;;12.80;2.15;;;;;;;29.51;18.32;100400.06;2069892;28;20518;-72
2022/05/29 05:39:30;;;;;;;13.02;2.42;;;;;;;29.48;18.02;100399.38;2085453;28;20060;-72
2022/05/29 05:40:52;;;;;;;12.07;1.50;;;;;;;29.43;18.23;100404.28;2072696;28;20429;-73
2022/05/29 05:42:15;;;;;;;10.18;2.10;;;;;;;29.39;18.35;100402.75;2074652;28;20074;-72
2022/05/29 05:43:36;;;;;;;10.30;1.75;;;;;;;29.38;18.57;100396.44;2076259;28;20052;-71
2022/05/29 05:44:59;;;;;;;11.40;2.42;;;;;;;29.36;18.54;100373.03;2076391;28;20049;-72
2022/05/29 05:46:22;;;;;;;9.32;1.80;;;;;;;29.30;18.35;100391.47;2090756;28;20044;-72
2022/05/29 05:47:45;;;;;;;10.23;2.17;;;;;;;29.30;18.32;100385.16;2084876;28;20587;-71
2022/05/29 05:49:06;;;;;;;8.93;2.38;;;;;;;29.29;18.68;100392.44;2087667;28;20045;-72
2022/05/29 05:50:31;;;;;;;10.77;1.90;;;;;;;29.32;18.42;100385.94;2074063;28;20041;-71
2022/05/29 05:51:54;;;;;;;10.70;1.75;;;;;;;29.32;18.60;100386.81;2083370;28;20076;-72
2022/05/29 05:53:18;;;;;;;13.02;2.00;;;;;;;29.39;18.65;100386.44;2079958;28;20060;-72
2022/05/29 05:54:41;;;;;;;10.65;1.90;;;;;;;29.57;18.65;100398.78;2069104;28;20049;-72
2022/05/29 05:56:06;;;;;;;9.13;1.63;;;;;;;29.91;18.38;100391.84;2073119;28;20053;-73
2022/05/29 05:57:28;;;;;;;14.63;3.10;;;;;;;30.14;18.19;100395.69;2069391;28;20044;-72
2022/05/29 05:58:51;;;;;;;9.55;1.50;;;;;;;30.21;18.00;100410.59;2068629;28;20498;-72
2022/05/29 06:00:18;;;;;;;7.65;1.85;;;;;;;30.23;17.83;100381.41;2079429;28;20170;-72
2022/05/29 06:01:40;;;;;;;8.45;1.80;;;;;;;30.10;18.25;100397.75;2081926;28;20135;-72
2022/05/29 06:03:03;;;;;;;12.05;1.90;;;;;;;30.26;17.89;100398.38;2085429;28;20147;-73
2022/05/29 06:04:25;;;;;;;9.63;2.05;;;;;;;30.57;17.54;100421.63;2076966;28;20501;-72
2022/05/29 06:05:48;;;;;;;5.07;1.95;;;;;;;30.97;17.10;100375.03;2077122;28;20083;-72
2022/05/29 06:07:11;;;;;;;7.85;1.80;;;;;;;31.20;17.14;100398.75;2076869;28;20107;-71
2022/05/29 06:08:36;;;;;;;9.93;2.63;;;;;;;31.03;17.16;100400.00;2074407;28;20505;-72
2022/05/29 06:09:59;;;;;;;11.45;2.53;;;;;;;31.21;17.16;100411.41;2084519;28;20766;-72
2022/05/29 06:11:21;;;;;;;5.43;1.70;;;;;;;31.62;16.60;100405.53;2076456;28;20087;-72
2022/05/29 06:12:44;;;;;;;9.15;2.08;;;;;;;32.04;16.71;100410.34;2066617;28;20052;-72
2022/05/29 06:14:08;;;;;;;15.85;2.40;;;;;;;32.37;16.32;100405.94;2065749;28;20119;-72
2022/05/29 06:15:30;;;;;;;9.32;1.83;;;;;;;32.59;16.61;100421.47;2073793;28;20637;-72
2022/05/29 06:16:53;;;;;;;7.13;1.60;;;;;;;32.86;16.64;100415.63;2076860;28;20118;-72
2022/05/29 06:18:17;;;;;;;12.80;2.78;;;;;;;33.10;16.15;100424.53;2068378;28;20708;-72
2022/05/29 06:19:40;;;;;;;8.57;1.67;;;;;;;32.82;16.08;100420.50;2073576;28;20060;-72
2022/05/29 06:21:04;;;;;;;12.00;2.50;;;;;;;32.72;16.08;100416.78;2079806;28;20110;-72
2022/05/29 06:22:27;;;;;;;11.13;2.40;;;;;;;32.81;16.02;100418.75;2091091;28;20120;-71
2022/05/29 06:23:52;;;;;;;7.65;1.92;;;;;;;32.95;15.89;100421.19;2092895;28;20045;-72
2022/05/29 06:25:15;;;;;;;7.50;2.00;;;;;;;33.06;15.92;100426.66;2095567;28;20052;-72
2022/05/29 06:26:38;;;;;;;12.35;1.83;;;;;;;33.16;16.13;100427.63;2092734;28;20417;-72
2022/05/29 06:28:01;;;;;;;11.25;2.45;;;;;;;33.38;16.20;100428.59;2092967;28;20500;-72
2022/05/29 06:29:23;;;;;;;13.02;2.33;;;;;;;33.47;15.86;100436.03;2086408;28;20045;-71
2022/05/29 06:30:46;;;;;;;10.30;2.20;;;;;;;33.49;15.99;100440.34;2084823;28;20036;-72
2022/05/29 06:32:12;;;;;;;7.55;1.75;;;;;;;33.61;15.94;100452.13;2084911;28;20049;-72
2022/05/29 06:33:34;;;;;;;9.30;2.13;;;;;;;33.65;15.90;100437.19;2085045;28;20556;-72
2022/05/29 06:34:58;;;;;;;11.23;1.90;;;;;;;33.61;15.56;100442.03;2076941;28;20159;-72
2022/05/29 06:36:23;;;;;;;12.07;2.70;;;;;;;33.65;15.65;100450.00;2074319;28;20055;-72
2022/05/29 06:37:45;;;;;;;9.13;1.70;;;;;;;33.70;15.75;100434.03;2075128;28;20055;-71
2022/05/29 06:39:09;;;;;;;7.40;1.77;;;;;;;33.67;15.61;100451.63;2074404;28;20049;-72
2022/05/29 06:40:32;;;;;;;10.18;1.83;;;;;;;33.64;16.11;100462.81;2074177;28;20041;-72
2022/05/29 06:41:55;;;;;;;8.63;2.53;;;;;;;33.61;16.01;100457.59;2090787;28;20083;-72